Time;durP1;ratioP1;P1;durP2;ratioP2;P2;SDS_P1;SDS_P2;PMS_P1;PMS_P2;Temp;Humidity;BMP_temperature;BMP_pressure;BME280_temperature;BME280_humidity;BME280_pressure;Samples;Min_cycle;Max_cycle;Signal;HPM_P1;HPM_P2
2022/09/30 00:01:33;;;;;;;10.15;8.60;;;8.60;99.90;;;;;;5041927;28;20048;-61
2022/09/30 00:04:00;;;;;;;10.75;9.70;;;8.70;99.90;;;;;;5044249;28;20132;-63
2022/09/30 00:06:28;;;;;;;10.35;9.25;;;8.50;99.90;;;;;;5052778;28;20040;-63
2022/09/30 00:08:54;;;;;;;11.20;10.00;;;8.50;99.90;;;;;;5044740;28;20380;-60
2022/09/30 00:11:27;;;;;;;11.75;10.55;;;8.50;99.90;;;;;;5043906;28;20469;-61
2022/09/30 00:13:54;;;;;;;11.52;10.43;;;8.50;99.90;;;;;;5043650;28;20047;-63
2022/09/30 00:16:22;;;;;;;11.45;10.35;;;8.60;99.90;;;;;;5041032;28;20076;-63
2022/09/30 00:18:49;;;;;;;12.20;10.90;;;8.50;99.90;;;;;;5043865;28;20045;-63
2022/09/30 00:21:15;;;;;;;13.75;10.88;;;8.50;99.90;;;;;;5043113;28;20049;-62
2022/09/30 00:23:43;;;;;;;13.10;11.23;;;8.50;99.90;;;;;;5043376;28;20053;-61
2022/09/30 00:26:12;;;;;;;11.88;10.70;;;8.50;99.90;;;;;;5042950;28;20033;-62
2022/09/30 00:28:39;;;;;;;12.73;10.85;;;8.50;99.90;;;;;;5043708;28;20662;-63
2022/09/30 00:31:08;;;;;;;12.10;10.55;;;8.40;99.90;;;;;;5042374;28;20594;-63
2022/09/30 00:33:34;;;;;;;11.95;10.75;;;8.50;99.90;;;;;;5043092;28;20182;-63
2022/09/30 00:36:01;;;;;;;12.40;11.20;;;8.50;99.90;;;;;;5042745;28;20049;-63
2022/09/30 00:38:27;;;;;;;12.68;11.38;;;8.50;99.90;;;;;;5043648;28;20120;-61
2022/09/30 00:40:53;;;;;;;13.05;11.77;;;8.50;99.90;;;;;;5042788;28;20053;-62
2022/09/30 00:43:39;;;;;;;15.05;12.27;;;8.50;99.90;;;;;;5043670;28;20587;-62
2022/09/30 00:46:07;;;;;;;12.73;11.43;;;8.40;99.90;;;;;;5042396;28;20096;-61
2022/09/30 00:48:37;;;;;;;13.73;11.50;;;8.40;99.90;;;;;;5043798;28;20045;-63
2022/09/30 00:51:06;;;;;;;15.02;12.38;;;8.40;99.90;;;;;;5043315;28;20048;-63
2022/09/30 00:53:58;;;;;;;13.13;11.82;;;8.40;99.90;;;;;;5042729;28;20064;-62
2022/09/30 00:56:28;;;;;;;12.95;11.75;;;8.40;99.90;;;;;;5036319;28;20447;-63
2022/09/30 00:58:59;;;;;;;14.48;12.27;;;8.50;99.90;;;;;;5043127;28;20403;-61
2022/09/30 01:01:25;;;;;;;13.75;12.35;;;8.50;99.90;;;;;;5042621;28;20040;-63
2022/09/30 01:03:56;;;;;;;15.73;11.98;;;8.50;99.90;;;;;;5043864;28;20051;-63
2022/09/30 01:06:23;;;;;;;14.00;12.00;;;8.50;99.90;;;;;;5046003;28;20136;-63
2022/09/30 01:08:49;;;;;;;13.65;12.25;;;8.50;99.90;;;;;;5060916;28;20044;-63
2022/09/30 01:11:16;;;;;;;14.10;12.50;;;8.50;99.90;;;;;;5063272;28;20094;-61
2022/09/30 01:13:45;;;;;;;13.35;11.60;;;8.40;99.90;;;;;;5062648;28;20051;-62
2022/09/30 01:16:36;;;;;;;13.98;12.10;;;8.40;99.90;;;;;;5062342;28;20133;-63
2022/09/30 01:19:23;;;;;;;14.95;12.60;;;8.50;99.90;;;;;;5064849;28;20040;-61
2022/09/30 01:22:26;;;;;;;14.13;12.18;;;8.40;99.90;;;;;;5066296;28;20052;-62
2022/09/30 01:25:16;;;;;;;15.27;12.57;;;8.60;99.90;;;;;;5066441;28;20041;-63
2022/09/30 01:28:09;;;;;;;13.48;11.68;;;8.60;99.90;;;;;;5066736;28;20082;-62
2022/09/30 01:31:00;;;;;;;14.02;12.05;;;8.60;99.90;;;;;;5063546;28;20612;-63
2022/09/30 01:33:28;;;;;;;14.57;11.50;;;8.60;99.90;;;;;;5066418;28;20044;-63
2022/09/30 01:36:08;;;;;;;14.23;11.68;;;8.60;99.90;;;;;;5065670;28;20044;-62
2022/09/30 01:38:49;;;;;;;15.45;11.93;;;8.80;99.90;;;;;;5066272;28;20045;-62
2022/09/30 01:41:27;;;;;;;14.55;12.07;;;8.60;99.90;;;;;;5065832;28;20092;-62
2022/09/30 01:44:24;;;;;;;13.57;11.50;;;8.70;99.90;;;;;;5065393;28;20056;-60
2022/09/30 01:47:12;;;;;;;15.15;11.57;;;8.70;99.90;;;;;;5065783;28;20043;-61
2022/09/30 01:49:55;;;;;;;15.93;11.45;;;8.80;99.90;;;;;;5066210;28;20041;-63
2022/09/30 01:52:35;;;;;;;17.65;12.25;;;8.80;99.90;;;;;;5066284;28;20048;-63
2022/09/30 01:55:08;;;;;;;13.55;12.15;;;8.80;99.90;;;;;;5066043;28;20066;-62
2022/09/30 01:57:49;;;;;;;14.32;11.38;;;8.70;99.90;;;;;;5066058;28;20048;-61
2022/09/30 02:00:15;;;;;;;11.88;10.55;;;8.90;99.90;;;;;;5064268;28;20435;-62
2022/09/30 02:03:01;;;;;;;13.32;11.45;;;8.70;99.90;;;;;;5065508;28;20139;-61
2022/09/30 02:05:39;;;;;;;12.95;11.35;;;8.80;99.90;;;;;;5060444;28;20037;-63
2022/09/30 02:08:15;;;;;;;14.60;11.10;;;8.80;99.90;;;;;;5057178;28;20040;-63
2022/09/30 02:10:45;;;;;;;12.57;11.27;;;8.90;99.90;;;;;;5065559;28;20045;-62
2022/09/30 02:13:31;;;;;;;15.60;12.25;;;8.70;99.90;;;;;;5137527;22;20059;-62
2022/09/30 02:16:11;;;;;;;14.13;11.95;;;8.60;99.90;;;;;;5054564;28;20730;-63
2022/09/30 02:19:09;;;;;;;14.23;10.95;;;8.50;99.90;;;;;;5064916;28;20056;-63
2022/09/30 02:21:40;;;;;;;14.32;11.15;;;8.40;99.90;;;;;;5064352;28;20088;-63
2022/09/30 02:24:11;;;;;;;13.05;10.90;;;8.30;99.90;;;;;;5065601;28;20423;-62
2022/09/30 02:26:40;;;;;;;14.40;11.45;;;8.20;99.90;;;;;;5065571;28;20039;-61
2022/09/30 02:29:34;;;;;;;12.57;11.27;;;8.10;99.90;;;;;;5064090;28;20052;-63
2022/09/30 02:32:24;;;;;;;17.45;11.73;;;8.10;99.90;;;;;;5063356;28;20037;-60
2022/09/30 02:34:55;;;;;;;13.70;12.00;;;8.10;99.90;;;;;;5064911;28;20379;-63
2022/09/30 02:37:30;;;;;;;13.93;10.60;;;8.10;99.90;;;;;;5065262;28;20049;-62
2022/09/30 02:40:06;;;;;;;13.75;11.68;;;8.30;99.90;;;;;;5063818;28;20052;-63
2022/09/30 02:42:32;;;;;;;15.93;11.82;;;8.10;99.90;;;;;;5064964;28;20098;-63
2022/09/30 02:45:09;;;;;;;13.73;11.88;;;8.00;99.90;;;;;;5063771;28;20128;-63
2022/09/30 02:48:05;;;;;;;16.17;12.40;;;7.90;99.90;;;;;;5063921;28;20880;-63
2022/09/30 02:50:32;;;;;;;21.85;13.70;;;7.80;99.90;;;;;;5065259;28;20052;-62
2022/09/30 02:53:20;;;;;;;26.60;13.60;;;7.80;99.90;;;;;;5063194;28;20048;-62
2022/09/30 02:56:07;;;;;;;71.75;15.95;;;7.80;99.90;;;;;;5065344;28;20087;-63
2022/09/30 02:58:35;;;;;;;208.55;18.67;;;7.60;99.90;;;;;;5064918;28;20440;-61
2022/09/30 03:01:02;;;;;;;191.13;18.58;;;7.60;99.90;;;;;;5064006;28;20406;-62
2022/09/30 03:03:34;;;;;;;132.35;17.48;;;7.50;99.90;;;;;;5063501;28;20036;-62
2022/09/30 03:06:00;;;;;;;87.18;15.38;;;7.40;99.90;;;;;;5058061;28;20041;-63
2022/09/30 03:08:25;;;;;;;68.15;14.85;;;7.40;99.90;;;;;;5049690;28;20044;-62
2022/09/30 03:10:51;;;;;;;147.80;17.33;;;7.40;99.90;;;;;;5044844;28;20463;-63
2022/09/30 03:14:04;;;;;;;93.30;14.77;;;7.30;99.90;;;;;;5045120;28;20175;-63
2022/09/30 03:16:50;;;;;;;77.05;15.38;;;7.20;99.90;;;;;;5043973;28;20045;-63
2022/09/30 03:19:19;;;;;;;82.35;14.80;;;7.10;99.90;;;;;;5045180;28;20410;-62
2022/09/30 03:22:03;;;;;;;46.08;14.55;;;7.10;99.90;;;;;;5045103;28;20693;-62
2022/09/30 03:24:53;;;;;;;68.75;14.70;;;7.00;99.90;;;;;;5044607;28;20584;-63
2022/09/30 03:28:05;;;;;;;23.77;13.25;;;7.10;99.90;;;;;;5044751;28;20395;-63
2022/09/30 03:30:36;;;;;;;21.85;13.82;;;6.90;99.90;;;;;;5027625;28;20057;-62
2022/09/30 03:33:19;;;;;;;18.05;14.25;;;7.00;99.90;;;;;;5044527;28;20088;-61
2022/09/30 03:36:06;;;;;;;17.50;13.20;;;7.00;99.90;;;;;;5043757;28;20142;-62
2022/09/30 03:38:43;;;;;;;21.13;14.80;;;7.00;99.90;;;;;;5044139;28;20041;-61
2022/09/30 03:41:28;;;;;;;15.10;13.52;;;7.10;99.90;;;;;;5042997;28;20269;-60
2022/09/30 03:44:02;;;;;;;14.57;13.02;;;7.20;99.90;;;;;;5044026;28;20049;-63
2022/09/30 03:46:36;;;;;;;;;;;7.20;99.90;;;;;;5043219;28;20036;-62
2022/09/30 03:49:06;;;;;;;25.17;14.10;;;7.20;99.90;;;;;;5044086;28;19920;-63
2022/09/30 03:51:36;;;;;;;49.88;13.82;;;7.20;99.90;;;;;;5044258;28;20044;-61
2022/09/30 03:54:08;;;;;;;24.45;13.73;;;7.10;99.90;;;;;;5043250;28;20051;-61
2022/09/30 03:56:36;;;;;;;24.63;13.15;;;7.00;99.90;;;;;;5044045;28;20047;-63
2022/09/30 03:59:03;;;;;;;25.45;13.00;;;7.00;99.90;;;;;;5044047;28;20609;-63
2022/09/30 04:01:29;;;;;;;19.45;13.20;;;7.00;99.90;;;;;;5043187;28;20080;-61
2022/09/30 04:03:54;;;;;;;13.98;12.48;;;7.00;99.90;;;;;;5044001;28;20086;-61
2022/09/30 04:06:22;;;;;;;13.70;12.30;;;6.90;99.90;;;;;;5052750;28;20056;-60
2022/09/30 04:08:49;;;;;;;14.20;12.80;;;6.90;99.90;;;;;;5045907;28;20048;-63
2022/09/30 04:11:16;;;;;;;12.82;11.57;;;6.90;99.90;;;;;;5043639;28;20048;-63
2022/09/30 04:13:42;;;;;;;13.38;11.98;;;6.80;99.90;;;;;;5043465;28;20140;-62
2022/09/30 04:16:08;;;;;;;13.30;11.90;;;6.80;99.90;;;;;;5042352;28;20445;-62
2022/09/30 04:18:36;;;;;;;14.15;12.68;;;6.80;99.90;;;;;;5043660;28;20036;-63
2022/09/30 04:21:05;;;;;;;12.30;11.07;;;6.80;99.90;;;;;;5042513;28;20049;-60
2022/09/30 04:23:37;;;;;;;12.40;11.10;;;6.70;99.90;;;;;;5041597;28;20043;-62
2022/09/30 04:26:04;;;;;;;13.27;11.88;;;6.80;99.90;;;;;;5043673;28;20073;-61
2022/09/30 04:28:31;;;;;;;13.63;10.70;;;6.90;99.90;;;;;;5042177;28;20080;-61
2022/09/30 04:31:00;;;;;;;17.73;9.88;;;6.80;99.90;;;;;;5042220;28;20059;-62
2022/09/30 04:33:27;;;;;;;15.73;10.70;;;6.90;99.90;;;;;;5042332;28;20128;-63
2022/09/30 04:35:57;;;;;;;19.13;11.77;;;6.70;99.90;;;;;;5042567;28;20059;-61
2022/09/30 04:38:24;;;;;;;11.73;10.52;;;6.90;99.90;;;;;;5043421;28;20059;-62
2022/09/30 04:40:54;;;;;;;11.82;10.60;;;6.90;99.90;;;;;;5043497;28;20414;-62
2022/09/30 04:43:21;;;;;;;11.93;10.20;;;6.90;99.90;;;;;;5043268;28;20095;-62
2022/09/30 04:45:47;;;;;;;23.33;11.95;;;6.80;99.90;;;;;;5041906;28;20071;-63
2022/09/30 04:48:13;;;;;;;20.38;12.07;;;6.90;99.90;;;;;;5043441;28;20045;-62
2022/09/30 04:50:40;;;;;;;16.10;11.93;;;6.90;99.90;;;;;;5043319;28;20056;-62
2022/09/30 04:53:10;;;;;;;15.57;12.43;;;6.70;99.90;;;;;;5043114;28;20485;-61
2022/09/30 04:55:36;;;;;;;16.33;12.85;;;6.70;99.90;;;;;;5047457;28;20099;-61
2022/09/30 04:58:02;;;;;;;15.10;12.25;;;6.60;99.90;;;;;;5046979;28;20044;-63
2022/09/30 05:00:27;;;;;;;14.77;12.63;;;6.60;99.90;;;;;;5046058;28;20048;-62
2022/09/30 05:02:53;;;;;;;14.40;12.35;;;6.50;99.90;;;;;;5046630;28;20049;-63
2022/09/30 05:05:19;;;;;;;15.82;12.45;;;6.30;99.90;;;;;;5049988;28;20039;-61
2022/09/30 05:07:44;;;;;;;14.02;12.15;;;6.40;99.90;;;;;;5055459;28;20048;-63
2022/09/30 05:10:11;;;;;;;13.70;11.70;;;6.40;99.90;;;;;;5046735;28;20068;-62
2022/09/30 05:12:39;;;;;;;15.55;11.88;;;6.30;99.90;;;;;;5046530;28;20072;-63
2022/09/30 05:15:06;;;;;;;12.52;11.13;;;6.20;99.90;;;;;;5045806;28;20055;-62
2022/09/30 05:17:32;;;;;;;12.80;11.18;;;6.30;99.90;;;;;;5046525;28;20402;-62
2022/09/30 05:19:57;;;;;;;12.27;11.07;;;6.20;99.90;;;;;;5046402;28;20044;-61
2022/09/30 05:22:23;;;;;;;13.45;12.05;;;6.40;99.90;;;;;;5046702;28;20048;-61
2022/09/30 05:24:53;;;;;;;15.35;12.15;;;6.40;99.90;;;;;;5046992;28;20034;-62
2022/09/30 05:27:19;;;;;;;15.98;13.05;;;6.40;99.90;;;;;;5046245;28;20055;-60
2022/09/30 05:29:45;;;;;;;19.85;12.80;;;6.30;99.90;;;;;;5045845;28;20442;-63
2022/09/30 05:32:10;;;;;;;37.47;14.10;;;6.40;99.90;;;;;;5046291;28;20258;-59
2022/09/30 05:34:37;;;;;;;24.50;14.07;;;6.50;99.90;;;;;;5045561;28;20079;-62
2022/09/30 05:37:04;;;;;;;24.40;13.73;;;6.40;99.90;;;;;;5045963;28;20162;-62
2022/09/30 05:39:30;;;;;;;26.25;13.35;;;6.30;99.90;;;;;;5046517;28;20037;-63
2022/09/30 05:41:59;;;;;;;31.50;13.77;;;6.40;99.90;;;;;;5045944;28;20656;-62
2022/09/30 05:44:25;;;;;;;26.85;12.80;;;6.40;99.90;;;;;;5045132;28;20055;-63
2022/09/30 05:46:50;;;;;;;24.92;12.30;;;6.30;99.90;;;;;;5045730;28;20048;-61
2022/09/30 05:49:16;;;;;;;31.27;12.20;;;6.30;99.90;;;;;;5045708;28;20506;-62
2022/09/30 05:51:42;;;;;;;19.98;10.80;;;6.30;99.90;;;;;;5045244;28;20459;-61
2022/09/30 05:54:09;;;;;;;27.33;11.63;;;6.20;99.90;;;;;;5045878;28;20103;-62
2022/09/30 05:56:37;;;;;;;10.90;9.65;;;6.20;99.90;;;;;;5045870;28;20052;-60
2022/09/30 05:59:03;;;;;;;13.00;9.60;;;6.20;99.90;;;;;;5045046;28;20044;-61
2022/09/30 06:01:29;;;;;;;15.02;10.00;;;6.20;99.90;;;;;;5045473;28;20049;-63
2022/09/30 06:03:55;;;;;;;25.95;11.57;;;6.10;99.90;;;;;;5045284;28;20033;-62
2022/09/30 06:06:20;;;;;;;38.38;10.73;;;6.10;99.90;;;;;;5053678;28;20052;-65
2022/09/30 06:08:46;;;;;;;35.28;12.50;;;6.20;99.90;;;;;;5048335;28;20037;-63
2022/09/30 06:11:14;;;;;;;31.98;11.38;;;6.10;99.90;;;;;;5045660;28;20044;-62
2022/09/30 06:13:41;;;;;;;39.22;11.85;;;6.20;99.90;;;;;;5046010;28;20051;-63
2022/09/30 06:16:08;;;;;;;32.15;11.70;;;6.20;99.90;;;;;;5043973;28;20044;-62
2022/09/30 06:18:34;;;;;;;11.95;9.65;;;6.20;99.90;;;;;;5045468;28;20037;-60
2022/09/30 06:21:02;;;;;;;36.25;11.23;;;6.30;99.90;;;;;;5045975;28;20128;-61
2022/09/30 06:23:29;;;;;;;15.10;11.18;;;6.40;99.90;;;;;;5045030;28;20044;-62
2022/09/30 06:25:55;;;;;;;21.40;10.88;;;6.20;99.90;;;;;;5045116;28;20094;-61
2022/09/30 06:28:22;;;;;;;40.63;12.50;;;6.20;99.90;;;;;;5045438;28;20049;-61
2022/09/30 06:30:48;;;;;;;15.88;10.68;;;6.20;99.90;;;;;;5043719;28;20124;-62
2022/09/30 06:33:14;;;;;;;55.17;12.82;;;6.20;99.90;;;;;;5043979;28;20170;-60
2022/09/30 06:35:41;;;;;;;36.33;12.63;;;6.60;99.90;;;;;;5044928;28;20044;-62
2022/09/30 06:38:10;;;;;;;14.10;11.63;;;6.40;99.90;;;;;;5044990;28;20041;-63
2022/09/30 06:40:36;;;;;;;16.08;11.95;;;6.40;99.90;;;;;;5044972;28;20048;-63
2022/09/30 06:43:03;;;;;;;16.92;13.30;;;6.40;99.90;;;;;;5045358;28;20090;-62
2022/09/30 06:45:31;;;;;;;37.80;14.55;;;6.50;99.90;;;;;;5044753;28;20045;-60
2022/09/30 06:48:01;;;;;;;14.43;12.27;;;6.50;99.90;;;;;;5044878;28;20036;-60
2022/09/30 06:50:29;;;;;;;19.95;12.80;;;6.60;99.90;;;;;;5045235;28;20072;-63
2022/09/30 06:53:00;;;;;;;19.05;14.15;;;6.60;99.90;;;;;;5045504;28;20098;-62
2022/09/30 06:55:26;;;;;;;25.35;15.00;;;6.80;99.90;;;;;;5045358;28;20112;-61
2022/09/30 06:57:53;;;;;;;36.80;15.57;;;6.90;99.90;;;;;;5045296;28;20501;-61
2022/09/30 07:00:19;;;;;;;16.13;14.35;;;7.00;99.90;;;;;;5043860;28;20045;-62
2022/09/30 07:02:44;;;;;;;18.48;15.27;;;7.00;99.90;;;;;;5043746;28;20221;-62
2022/09/30 07:05:10;;;;;;;24.05;15.90;;;7.10;99.90;;;;;;5045318;28;20037;-61
2022/09/30 07:07:36;;;;;;;42.13;16.60;;;7.20;99.90;;;;;;5053267;28;20084;-60
2022/09/30 07:10:03;;;;;;;19.40;14.43;;;7.20;99.90;;;;;;5044435;28;20122;-59
2022/09/30 07:12:29;;;;;;;29.65;15.25;;;7.10;99.90;;;;;;5044284;28;20119;-62
2022/09/30 07:14:59;;;;;;;17.73;13.77;;;7.30;99.90;;;;;;5043518;28;20124;-62
2022/09/30 07:17:28;;;;;;;21.95;14.73;;;7.20;99.90;;;;;;5043260;28;20691;-60
2022/09/30 07:19:53;;;;;;;19.92;14.63;;;7.20;99.90;;;;;;5044487;28;20048;-63
2022/09/30 07:22:28;;;;;;;30.73;16.15;;;7.20;99.90;;;;;;5042981;28;20055;-62
2022/09/30 07:24:56;;;;;;;18.23;16.27;;;7.30;99.90;;;;;;5043779;28;20072;-62
2022/09/30 07:27:22;;;;;;;42.47;18.02;;;7.50;99.90;;;;;;5043947;28;20052;-62
2022/09/30 07:29:48;;;;;;;24.50;18.17;;;7.50;99.90;;;;;;5043096;28;20124;-62
2022/09/30 07:32:14;;;;;;;35.80;18.17;;;7.60;99.90;;;;;;5043723;28;20131;-63
2022/09/30 07:34:41;;;;;;;54.53;19.45;;;7.60;99.90;;;;;;5043230;28;20041;-62
2022/09/30 07:37:09;;;;;;;21.88;17.98;;;7.80;99.90;;;;;;5042320;28;20098;-61
2022/09/30 07:39:35;;;;;;;22.05;17.77;;;7.90;99.90;;;;;;5044137;28;20045;-61
2022/09/30 07:42:02;;;;;;;25.02;20.10;;;7.90;99.90;;;;;;5043839;28;20041;-61
2022/09/30 07:44:28;;;;;;;22.00;19.50;;;8.10;99.90;;;;;;5043383;28;20414;-61
2022/09/30 07:46:54;;;;;;;21.85;19.52;;;8.30;99.90;;;;;;5044059;28;20044;-62
2022/09/30 07:49:24;;;;;;;23.30;19.23;;;8.30;99.90;;;;;;5042494;28;20514;-61
2022/09/30 07:51:55;;;;;;;21.23;18.27;;;8.40;99.90;;;;;;5043624;28;20052;-63
2022/09/30 07:54:24;;;;;;;23.42;19.48;;;8.50;99.90;;;;;;5043822;28;20124;-62
2022/09/30 07:56:51;;;;;;;22.55;18.42;;;8.60;99.90;;;;;;5043608;28;20166;-62
2022/09/30 07:59:17;;;;;;;21.55;18.20;;;8.80;99.90;;;;;;5043039;28;20048;-63
2022/09/30 08:01:43;;;;;;;19.77;17.38;;;9.00;99.90;;;;;;5042433;28;20124;-63
2022/09/30 08:04:10;;;;;;;21.50;18.15;;;8.90;99.90;;;;;;5041516;28;20048;-63
2022/09/30 08:06:40;;;;;;;20.13;17.27;;;9.10;99.90;;;;;;5054625;28;20044;-61
2022/09/30 08:09:06;;;;;;;19.65;16.40;;;9.30;99.90;;;;;;5043963;28;20067;-63
2022/09/30 08:11:33;;;;;;;19.08;16.95;;;9.20;99.90;;;;;;5043185;28;20487;-60
2022/09/30 08:13:58;;;;;;;19.77;16.70;;;9.60;99.90;;;;;;5043664;28;20049;-61
2022/09/30 08:16:25;;;;;;;19.80;17.75;;;9.70;99.90;;;;;;5042356;28;20072;-62
2022/09/30 08:18:59;;;;;;;18.88;16.90;;;9.70;99.90;;;;;;5043334;28;20471;-62
2022/09/30 08:21:25;;;;;;;16.83;15.13;;;9.90;99.90;;;;;;5058873;28;20068;-58
2022/09/30 08:23:51;;;;;;;15.38;13.77;;;9.90;99.90;;;;;;5042328;28;20041;-63
2022/09/30 08:26:18;;;;;;;15.85;13.80;;;10.20;99.90;;;;;;5043315;28;20041;-61
2022/09/30 08:28:47;;;;;;;14.00;12.07;;;10.20;99.90;;;;;;5047158;28;20356;-64
2022/09/30 08:31:20;;;;;;;15.35;12.02;;;10.30;99.90;;;;;;5047028;28;20048;-61
2022/09/30 08:33:46;;;;;;;12.57;11.27;;;10.40;99.90;;;;;;5047119;28;20048;-63
2022/09/30 08:36:15;;;;;;;13.15;11.23;;;10.60;99.90;;;;;;5047170;28;20390;-63
2022/09/30 08:38:41;;;;;;;12.73;11.45;;;10.70;99.90;;;;;;5047607;28;20048;-63
2022/09/30 08:41:15;;;;;;;11.45;10.30;;;10.90;99.90;;;;;;5046709;28;20049;-62
2022/09/30 08:44:18;;;;;;;11.20;10.00;;;10.90;99.90;;;;;;5046705;28;20045;-63
2022/09/30 08:46:50;;;;;;;11.48;10.38;;;11.10;99.90;;;;;;5043416;28;20053;-63
2022/09/30 08:49:44;;;;;;;11.43;10.32;;;11.20;99.90;;;;;;5047272;28;20059;-63
2022/09/30 08:52:25;;;;;;;11.05;9.98;;;11.40;99.90;;;;;;5047351;28;20044;-62
2022/09/30 08:54:53;;;;;;;10.63;9.60;;;11.40;99.90;;;;;;5047518;28;20051;-63
2022/09/30 08:57:20;;;;;;;10.32;9.00;;;11.60;99.90;;;;;;5046445;28;20060;-62
2022/09/30 08:59:56;;;;;;;9.45;8.55;;;11.70;99.90;;;;;;5046660;28;20069;-62
2022/09/30 09:02:36;;;;;;;8.35;7.50;;;12.20;99.90;;;;;;5047286;28;20045;-64
2022/09/30 09:05:05;;;;;;;7.80;7.00;;;12.60;99.90;;;;;;5049515;28;20391;-60
2022/09/30 09:08:05;;;;;;;7.45;6.75;;;13.40;99.90;;;;;;5053969;28;20080;-62
2022/09/30 09:10:58;;;;;;;9.82;6.45;;;13.60;99.90;;;;;;5046453;28;20460;-62
2022/09/30 09:13:30;;;;;;;7.07;6.38;;;13.60;99.90;;;;;;5044933;28;20064;-64
2022/09/30 09:16:20;;;;;;;8.43;6.80;;;13.40;99.90;;;;;;5046012;28;20049;-63
2022/09/30 09:18:54;;;;;;;7.15;6.45;;;13.60;99.90;;;;;;5046615;28;20053;-60
2022/09/30 09:21:31;;;;;;;6.82;6.10;;;14.10;99.90;;;;;;5046502;28;20043;-62
2022/09/30 09:24:00;;;;;;;7.13;6.05;;;14.20;99.90;;;;;;5046406;28;20599;-63
2022/09/30 09:26:29;;;;;;;8.10;6.78;;;14.00;99.90;;;;;;5061958;28;20060;-64
2022/09/30 09:29:04;;;;;;;7.00;6.30;;;14.30;99.90;;;;;;5045579;28;20550;-63
2022/09/30 09:31:29;;;;;;;;;;;14.40;99.90;;;;;;5046564;28;20044;-64
2022/09/30 09:34:00;;;;;;;6.32;4.03;;;14.70;99.90;;;;;;5044781;28;20015;-64
2022/09/30 09:36:43;;;;;;;6.97;5.55;;;14.20;99.90;;;;;;5043619;28;20433;-64
2022/09/30 09:39:33;;;;;;;8.57;6.40;;;14.20;99.90;;;;;;5045979;28;20573;-63
2022/09/30 09:41:59;;;;;;;8.50;6.22;;;14.40;99.90;;;;;;5046293;28;20053;-62
2022/09/30 09:44:49;;;;;;;6.78;5.72;;;14.80;99.90;;;;;;5044804;28;20045;-64
2022/09/30 09:47:16;;;;;;;7.25;5.78;;;14.90;99.90;;;;;;5045535;28;20041;-64
2022/09/30 09:50:03;;;;;;;7.93;5.32;;;15.00;99.90;;;;;;5044863;28;20045;-62
2022/09/30 09:52:43;;;;;;;8.38;5.07;;;14.40;99.90;;;;;;5045454;28;20044;-65
2022/09/30 09:55:10;;;;;;;7.47;6.68;;;14.30;99.90;;;;;;5044528;28;20049;-62
2022/09/30 09:57:36;;;;;;;7.43;5.90;;;14.50;99.90;;;;;;5045297;28;20367;-64
2022/09/30 10:03:12;;;;;;;8.02;5.70;;;15.00;99.90;;;;;;5045149;28;20055;-62
2022/09/30 10:05:41;;;;;;;6.57;5.25;;;15.50;99.90;;;;;;5048314;28;20090;-63
2022/09/30 10:08:20;;;;;;;6.18;5.03;;;15.20;99.90;;;;;;5053669;28;20033;-64
2022/09/30 10:10:52;;;;;;;6.30;4.60;;;15.20;99.90;;;;;;5045332;28;20045;-62
2022/09/30 10:13:21;;;;;;;6.65;4.40;;;15.20;99.90;;;;;;5045420;28;20045;-63
2022/09/30 10:15:49;;;;;;;7.75;5.57;;;15.50;99.90;;;;;;5044745;28;20044;-64
2022/09/30 10:18:32;;;;;;;8.55;5.53;;;15.50;99.90;;;;;;5045250;28;20072;-64
2022/09/30 10:21:20;;;;;;;6.20;4.60;;;15.80;99.90;;;;;;5044511;28;20041;-64
2022/09/30 10:23:45;;;;;;;7.35;5.10;;;16.00;99.90;;;;;;5044563;28;20056;-64
2022/09/30 10:26:14;;;;;;;5.85;4.47;;;15.80;99.90;;;;;;5045560;28;20037;-63
2022/09/30 10:28:53;;;;;;;7.22;4.78;;;15.70;99.90;;;;;;5044867;28;20041;-62
2022/09/30 10:31:28;;;;;;;5.57;3.17;;;15.20;99.90;;;;;;5045122;28;20415;-63
2022/09/30 10:34:03;;;;;;;4.75;3.70;;;15.20;99.90;;;;;;5044119;28;20041;-64
2022/09/30 10:36:36;;;;;;;4.35;2.95;;;15.30;99.90;;;;;;5045130;28;20155;-64
2022/09/30 10:39:06;;;;;;;6.63;4.10;;;15.20;99.90;;;;;;5044527;28;20048;-64
2022/09/30 10:41:37;;;;;;;6.00;3.95;;;15.40;99.90;;;;;;5045117;28;20041;-63
2022/09/30 10:44:18;;;;;;;4.38;3.35;;;15.50;99.90;;;;;;5044190;28;20044;-62
2022/09/30 10:46:46;;;;;;;4.88;3.50;;;15.40;99.90;;;;;;5044775;28;20063;-64
2022/09/30 10:49:30;;;;;;;4.63;3.60;;;15.70;99.90;;;;;;5044608;28;20477;-62
2022/09/30 10:51:57;;;;;;;3.75;2.25;;;15.80;99.90;;;;;;5043206;28;20136;-64
2022/09/30 10:54:43;;;;;;;5.20;2.85;;;15.40;99.90;;;;;;5043043;28;20087;-62
2022/09/30 10:57:20;;;;;;;5.45;3.42;;;15.70;99.90;;;;;;5059336;28;20048;-62
2022/09/30 10:59:47;;;;;;;4.05;3.10;;;15.80;99.90;;;;;;5043375;28;20053;-63
2022/09/30 11:02:13;;;;;;;5.53;3.92;;;16.00;99.90;;;;;;5044546;28;20052;-62
2022/09/30 11:04:47;;;;;;;6.15;4.32;;;15.90;99.90;;;;;;5043651;28;20044;-63
2022/09/30 11:07:26;;;;;;;6.67;4.43;;;15.90;99.90;;;;;;5054379;28;20074;-64
2022/09/30 11:10:23;;;;;;;6.95;3.85;;;15.90;99.90;;;;;;5045508;28;20733;-62
2022/09/30 11:13:12;;;;;;;4.90;3.80;;;16.20;99.90;;;;;;5101410;27;20384;-62
2022/09/30 11:15:42;;;;;;;4.93;3.55;;;16.40;99.90;;;;;;5101250;28;20051;-63
2022/09/30 11:18:34;;;;;;;5.32;4.13;;;16.40;99.90;;;;;;5098335;28;20047;-63
2022/09/30 11:21:08;;;;;;;4.05;2.97;;;17.00;99.90;;;;;;5089981;28;20527;-62
2022/09/30 11:24:07;;;;;;;4.55;3.45;;;16.90;99.90;;;;;;5101129;28;20048;-62
2022/09/30 11:26:42;;;;;;;4.18;3.20;;;16.80;99.90;;;;;;5101308;28;20440;-63
2022/09/30 11:29:29;;;;;;;4.78;2.85;;;16.60;99.90;;;;;;5100227;28;20044;-62
2022/09/30 11:32:07;;;;;;;3.80;2.45;;;16.40;99.90;;;;;;5101766;28;20048;-63
2022/09/30 11:35:12;;;;;;;3.05;2.10;;;16.50;99.90;;;;;;5101762;28;20091;-64
2022/09/30 11:38:06;;;;;;;3.00;2.40;;;16.50;99.90;;;;;;5101358;28;20059;-63
2022/09/30 11:40:57;;;;;;;4.32;3.35;;;16.20;99.90;;;;;;5101615;28;20039;-62
2022/09/30 11:43:31;;;;;;;4.18;3.38;;;15.80;99.90;;;;;;5082812;28;20046;-63
2022/09/30 11:46:32;;;;;;;6.72;3.42;;;15.70;99.90;;;;;;5100511;28;20131;-62
2022/09/30 11:49:07;;;;;;;4.35;3.28;;;15.60;99.90;;;;;;5064739;28;20069;-62
2022/09/30 11:51:35;;;;;;;4.72;3.20;;;15.50;99.90;;;;;;5100752;28;20048;-63
2022/09/30 11:54:30;;;;;;;3.92;3.13;;;15.40;99.90;;;;;;5100804;28;20071;-63
2022/09/30 11:57:35;;;;;;;4.85;2.92;;;15.70;99.90;;;;;;5082861;28;20087;-63
2022/09/30 12:00:19;;;;;;;3.80;3.20;;;15.70;99.90;;;;;;5041224;28;20055;-63
2022/09/30 12:03:09;;;;;;;4.18;3.08;;;15.80;99.90;;;;;;5100499;28;20146;-63
2022/09/30 12:05:37;;;;;;;3.92;3.13;;;16.10;99.90;;;;;;5094109;28;20082;-63
2022/09/30 12:08:13;;;;;;;4.10;2.65;;;16.20;99.90;;;;;;5091159;28;20123;-62
2022/09/30 12:10:47;;;;;;;4.88;3.75;;;16.40;99.90;;;;;;5100202;28;20040;-63
2022/09/30 12:13:35;;;;;;;5.13;3.35;;;16.60;99.90;;;;;;5100438;28;20063;-62
2022/09/30 12:16:05;;;;;;;5.22;4.72;;;16.20;99.90;;;;;;5100698;28;20051;-62
2022/09/30 12:18:36;;;;;;;5.35;4.47;;;15.90;99.90;;;;;;5100191;28;20054;-62
2022/09/30 12:21:24;;;;;;;7.03;5.25;;;16.10;99.90;;;;;;5099892;28;20126;-62
2022/09/30 12:24:00;;;;;;;7.75;4.32;;;16.20;99.90;;;;;;5089785;28;20052;-62
2022/09/30 12:26:26;;;;;;;6.55;4.47;;;15.80;99.90;;;;;;5086877;28;20154;-62
2022/09/30 12:32:27;;;;;;;5.63;3.25;;;15.80;99.90;;;;;;5086521;28;20051;-62
2022/09/30 12:35:01;;;;;;;4.55;3.28;;;15.90;99.90;;;;;;5086298;28;20043;-63
2022/09/30 12:37:49;;;;;;;4.53;3.10;;;15.90;99.90;;;;;;5086877;28;20048;-63
2022/09/30 12:40:33;;;;;;;3.88;2.20;;;16.20;99.90;;;;;;5086218;28;20395;-62
2022/09/30 12:43:08;;;;;;;3.72;1.90;;;16.40;99.90;;;;;;5086374;28;20044;-63
2022/09/30 12:46:06;;;;;;;2.67;1.75;;;16.70;99.90;;;;;;5085325;28;20135;-62
2022/09/30 12:48:37;;;;;;;4.82;2.35;;;16.30;99.90;;;;;;5070698;28;20459;-63
2022/09/30 12:51:04;;;;;;;3.40;2.17;;;16.20;99.90;;;;;;5086025;28;20044;-62
2022/09/30 12:53:36;;;;;;;3.42;1.90;;;16.10;99.90;;;;;;5086162;28;20052;-63
2022/09/30 12:56:08;;;;;;;2.78;2.05;;;16.50;99.90;;;;;;5084752;28;20471;-63
2022/09/30 12:58:42;;;;;;;3.92;2.30;;;16.70;99.90;;;;;;5084923;28;20131;-62
2022/09/30 13:01:14;;;;;;;4.13;2.00;;;17.10;99.90;;;;;;5085273;28;20040;-63
2022/09/30 13:04:00;;;;;;;4.63;1.98;;;17.20;99.90;;;;;;5086442;28;20040;-62
2022/09/30 13:06:46;;;;;;;4.35;2.90;;;17.00;99.90;;;;;;5078639;28;20439;-63
2022/09/30 13:09:33;;;;;;;4.30;2.65;;;17.00;99.90;;;;;;5054829;28;20161;-63
2022/09/30 13:11:59;;;;;;;4.47;2.67;;;17.30;99.90;;;;;;5064812;28;20072;-63
2022/09/30 13:14:42;;;;;;;2.65;1.73;;;17.30;99.90;;;;;;5064666;28;20770;-63
2022/09/30 13:17:07;;;;;;;4.07;2.63;;;17.10;99.90;;;;;;5047259;28;20090;-62
2022/09/30 13:19:48;;;;;;;4.07;2.72;;;17.10;99.90;;;;;;5064391;28;20127;-63